Time;durP1;ratioP1;P1;durP2;ratioP2;P2;SDS_P1;SDS_P2;PMS_P1;PMS_P2;Temp;Humidity;BMP_temperature;BMP_pressure;BME280_temperature;BME280_humidity;BME280_pressure;Samples;Min_cycle;Max_cycle;Signal;HPM_P1;HPM_P2
2023/02/10 00:01:05;;;;;;;170.10;63.10;;;;;;;;;;6314848;22;20003;-95
2023/02/10 00:03:33;;;;;;;153.60;56.75;;;;;;;;;;6313610;22;20072;-94
2023/02/10 00:06:00;;;;;;;165.40;61.42;;;;;;;;;;6314491;22;20003;-96
2023/02/10 00:08:26;;;;;;;167.45;61.75;;;;;;;;;;6314699;22;20043;-95
2023/02/10 00:10:59;;;;;;;162.02;56.65;;;;;;;;;;6314953;22;20033;-95
2023/02/10 00:13:26;;;;;;;136.02;52.90;;;;;;;;;;6315765;22;20057;-95
2023/02/10 00:15:53;;;;;;;127.03;51.22;;;;;;;;;;6316415;22;20459;-94
2023/02/10 00:18:19;;;;;;;124.20;49.05;;;;;;;;;;6315669;22;20060;-94
2023/02/10 00:20:46;;;;;;;144.25;53.72;;;;;;;;;;6313045;22;20029;-95
2023/02/10 00:23:13;;;;;;;137.77;50.47;;;;;;;;;;6286871;22;20007;-95
2023/02/10 00:25:40;;;;;;;128.75;48.42;;;;;;;;;;6313951;22;20432;-96
2023/02/10 00:28:07;;;;;;;129.27;50.22;;;;;;;;;;6313625;22;20047;-94
2023/02/10 00:30:34;;;;;;;121.00;45.55;;;;;;;;;;6311144;22;20014;-93
2023/02/10 00:33:00;;;;;;;116.78;45.45;;;;;;;;;;6310503;22;20004;-96
2023/02/10 00:35:27;;;;;;;96.28;37.72;;;;;;;;;;6316519;22;20006;-94
2023/02/10 00:37:53;;;;;;;87.90;36.30;;;;;;;;;;6333697;22;20033;-95
2023/02/10 00:40:20;;;;;;;83.47;36.47;;;;;;;;;;6321020;22;20033;-94
2023/02/10 00:42:49;;;;;;;100.15;38.88;;;;;;;;;;6314167;22;20011;-95
2023/02/10 00:45:15;;;;;;;83.78;34.10;;;;;;;;;;6312264;22;20356;-93
2023/02/10 00:47:41;;;;;;;81.95;32.70;;;;;;;;;;6312006;22;20019;-93
2023/02/10 00:50:07;;;;;;;89.00;33.58;;;;;;;;;;6312156;22;20084;-96
2023/02/10 00:52:34;;;;;;;93.13;36.72;;;;;;;;;;6286451;22;20562;-96
2023/02/10 00:55:00;;;;;;;107.53;42.05;;;;;;;;;;6313582;22;20003;-95
2023/02/10 00:57:26;;;;;;;162.13;52.28;;;;;;;;;;6285178;22;20078;-96
2023/02/10 00:59:54;;;;;;;121.55;46.15;;;;;;;;;;6306449;22;20006;-95
2023/02/10 01:02:22;;;;;;;102.47;39.63;;;;;;;;;;6309499;22;20011;-96
2023/02/10 01:04:48;;;;;;;160.30;56.05;;;;;;;;;;6288766;22;20114;-92
2023/02/10 01:07:17;;;;;;;193.43;68.88;;;;;;;;;;6333708;22;20300;-93
2023/02/10 01:09:43;;;;;;;158.05;59.10;;;;;;;;;;6304942;22;19996;-95
2023/02/10 01:12:10;;;;;;;168.10;62.78;;;;;;;;;;6322207;22;20232;-95
2023/02/10 01:14:37;;;;;;;161.68;65.20;;;;;;;;;;6312504;22;20657;-94
2023/02/10 01:17:03;;;;;;;132.20;51.95;;;;;;;;;;6315281;22;20007;-93
2023/02/10 01:19:32;;;;;;;163.60;59.67;;;;;;;;;;6318058;22;20003;-96
2023/02/10 01:21:58;;;;;;;152.30;57.08;;;;;;;;;;6289089;22;20515;-94
2023/02/10 01:24:25;;;;;;;150.75;56.92;;;;;;;;;;6312637;22;20212;-95
2023/02/10 01:26:52;;;;;;;158.98;58.28;;;;;;;;;;6314361;22;20010;-96
2023/02/10 01:29:23;;;;;;;162.13;57.78;;;;;;;;;;6316102;22;20536;-95
2023/02/10 01:31:55;;;;;;;147.50;55.03;;;;;;;;;;6314636;22;20008;-94
2023/02/10 01:34:23;;;;;;;148.52;55.30;;;;;;;;;;6286507;22;20007;-95
2023/02/10 01:36:50;;;;;;;128.07;50.00;;;;;;;;;;6314582;22;20038;-95
2023/02/10 01:39:17;;;;;;;105.30;41.92;;;;;;;;;;6314436;22;20023;-94
2023/02/10 01:41:43;;;;;;;127.22;47.97;;;;;;;;;;6313532;22;20048;-95
2023/02/10 01:44:22;;;;;;;118.60;45.30;;;;;;;;;;6316571;22;20000;-96
2023/02/10 01:46:48;;;;;;;99.65;40.03;;;;;;;;;;6315035;22;20078;-96
2023/02/10 01:49:18;;;;;;;85.53;34.03;;;;;;;;;;6314116;22;20082;-96
2023/02/10 01:51:52;;;;;;;84.85;33.70;;;;;;;;;;6314836;22;20027;-95
2023/02/10 01:54:25;;;;;;;109.63;42.25;;;;;;;;;;6314456;22;20014;-95
2023/02/10 01:56:52;;;;;;;98.72;38.00;;;;;;;;;;6314693;22;20007;-96
2023/02/10 01:59:19;;;;;;;100.70;37.17;;;;;;;;;;6287896;22;20023;-96
2023/02/10 02:01:45;;;;;;;81.15;31.02;;;;;;;;;;6288088;22;20018;-96
2023/02/10 02:04:12;;;;;;;75.85;29.45;;;;;;;;;;6313106;22;20019;-94
2023/02/10 02:06:39;;;;;;;82.38;32.25;;;;;;;;;;6310808;22;20010;-94
2023/02/10 02:09:07;;;;;;;79.68;30.63;;;;;;;;;;6311365;22;20551;-96
2023/02/10 02:11:35;;;;;;;70.80;30.60;;;;;;;;;;6316094;22;20007;-94
2023/02/10 02:14:11;;;;;;;72.55;31.02;;;;;;;;;;6316813;22;20014;-92
2023/02/10 02:16:53;;;;;;;75.07;29.85;;;;;;;;;;6335113;22;20019;-93
2023/02/10 02:19:47;;;;;;;82.30;30.52;;;;;;;;;;6324443;22;20007;-96
2023/02/10 02:22:31;;;;;;;71.72;28.67;;;;;;;;;;6312884;22;20019;-95
2023/02/10 02:25:24;;;;;;;72.93;29.80;;;;;;;;;;6315067;22;20017;-94
2023/02/10 02:28:04;;;;;;;71.10;28.73;;;;;;;;;;6267205;22;20007;-96
2023/02/10 02:30:46;;;;;;;68.93;29.30;;;;;;;;;;6313154;22;20011;-96
2023/02/10 02:33:19;;;;;;;75.78;30.25;;;;;;;;;;6312435;22;20003;-93
2023/02/10 02:35:53;;;;;;;74.75;31.63;;;;;;;;;;6314467;22;20007;-95
2023/02/10 02:38:20;;;;;;;81.75;31.15;;;;;;;;;;6316284;22;20424;-95
2023/02/10 02:40:46;;;;;;;82.20;32.13;;;;;;;;;;6313514;22;20099;-96
2023/02/10 02:43:12;;;;;;;87.15;32.33;;;;;;;;;;6314742;22;20046;-95
2023/02/10 02:45:57;;;;;;;82.55;32.05;;;;;;;;;;6314440;22;20023;-94
2023/02/10 02:48:38;;;;;;;83.90;32.75;;;;;;;;;;6313831;22;20037;-94
2023/02/10 02:51:15;;;;;;;79.93;30.98;;;;;;;;;;6313120;22;20003;-96
2023/02/10 02:53:41;;;;;;;72.47;30.45;;;;;;;;;;6315249;22;20052;-93
2023/02/10 02:56:18;;;;;;;69.40;29.95;;;;;;;;;;6313692;22;20346;-94
2023/02/10 02:59:04;;;;;;;77.53;29.63;;;;;;;;;;6314058;22;20022;-95
2023/02/10 03:01:33;;;;;;;75.75;30.73;;;;;;;;;;6312075;22;20026;-96
2023/02/10 03:04:00;;;;;;;80.88;31.33;;;;;;;;;;6313187;22;20027;-96
2023/02/10 03:06:27;;;;;;;77.55;30.75;;;;;;;;;;6290283;22;20007;-94
2023/02/10 03:08:54;;;;;;;81.00;31.77;;;;;;;;;;6321316;22;20040;-94
2023/02/10 03:11:24;;;;;;;77.25;31.50;;;;;;;;;;6289928;22;20004;-94
2023/02/10 03:13:50;;;;;;;70.03;28.73;;;;;;;;;;6288210;22;20073;-96
2023/02/10 03:16:16;;;;;;;73.35;30.92;;;;;;;;;;6312006;22;20004;-95
2023/02/10 03:18:43;;;;;;;77.95;31.77;;;;;;;;;;6311952;22;20003;-94
2023/02/10 03:21:09;;;;;;;71.20;29.98;;;;;;;;;;6288511;22;20011;-95
2023/02/10 03:23:38;;;;;;;75.15;29.52;;;;;;;;;;6313415;22;20003;-96
2023/02/10 03:26:05;;;;;;;72.88;30.33;;;;;;;;;;6313524;22;20002;-94
2023/02/10 03:28:38;;;;;;;79.75;31.88;;;;;;;;;;6313285;22;20011;-95
2023/02/10 03:31:06;;;;;;;76.38;30.98;;;;;;;;;;6285671;22;20019;-96
2023/02/10 03:33:33;;;;;;;84.75;33.40;;;;;;;;;;6288411;22;20011;-94
2023/02/10 03:36:02;;;;;;;83.50;32.25;;;;;;;;;;6311027;22;20082;-96
2023/02/10 03:38:31;;;;;;;77.65;31.10;;;;;;;;;;6286905;22;20028;-96
2023/02/10 03:40:59;;;;;;;81.47;32.72;;;;;;;;;;6334308;22;20000;-93
2023/02/10 03:43:26;;;;;;;77.03;32.30;;;;;;;;;;6306805;22;19998;-94
2023/02/10 03:45:52;;;;;;;92.20;37.05;;;;;;;;;;6327817;22;20004;-93
2023/02/10 03:48:19;;;;;;;91.75;37.03;;;;;;;;;;6317104;22;20145;-95
2023/02/10 03:50:48;;;;;;;97.45;37.90;;;;;;;;;;6313336;22;20010;-95
2023/02/10 03:53:19;;;;;;;69.65;29.92;;;;;;;;;;6321095;22;20261;-93
2023/02/10 03:55:58;;;;;;;72.13;29.90;;;;;;;;;;6332279;22;20015;-95
2023/02/10 03:58:25;;;;;;;73.65;28.08;;;;;;;;;;6324038;22;20466;-96
2023/02/10 04:00:51;;;;;;;71.00;27.42;;;;;;;;;;6312972;22;20015;-94
2023/02/10 04:03:21;;;;;;;61.50;26.90;;;;;;;;;;6314753;22;20015;-96
2023/02/10 04:05:48;;;;;;;66.50;27.55;;;;;;;;;;6317667;22;20088;-95
2023/02/10 04:08:20;;;;;;;64.95;26.17;;;;;;;;;;6319676;22;20053;-95
2023/02/10 04:10:49;;;;;;;67.45;25.00;;;;;;;;;;6314967;22;20030;-96
2023/02/10 04:13:19;;;;;;;61.25;27.25;;;;;;;;;;6318098;22;20006;-95
2023/02/10 04:16:04;;;;;;;62.17;26.33;;;;;;;;;;6321708;22;20031;-95
2023/02/10 04:18:31;;;;;;;62.58;26.13;;;;;;;;;;6315597;22;20034;-94
2023/02/10 04:21:18;;;;;;;68.43;27.88;;;;;;;;;;6293256;22;20007;-94
2023/02/10 04:23:46;;;;;;;62.83;25.90;;;;;;;;;;6319573;22;20014;-95
2023/02/10 04:26:19;;;;;;;62.30;26.00;;;;;;;;;;6318105;22;20042;-94
2023/02/10 04:28:47;;;;;;;60.60;25.80;;;;;;;;;;6317086;22;20067;-96
2023/02/10 04:31:14;;;;;;;76.30;29.50;;;;;;;;;;6319148;22;20027;-96
2023/02/10 04:33:40;;;;;;;73.75;30.02;;;;;;;;;;6289974;22;20007;-95
2023/02/10 04:36:07;;;;;;;71.72;28.80;;;;;;;;;;6317468;22;20065;-95
2023/02/10 04:38:34;;;;;;;77.35;30.35;;;;;;;;;;6318253;22;20010;-96
2023/02/10 04:41:07;;;;;;;68.55;28.75;;;;;;;;;;6317631;22;20010;-96
2023/02/10 04:43:34;;;;;;;84.78;30.90;;;;;;;;;;6320240;22;20092;-96
2023/02/10 04:46:02;;;;;;;82.10;32.83;;;;;;;;;;6317264;22;20003;-94
2023/02/10 04:48:29;;;;;;;90.68;34.13;;;;;;;;;;6293650;22;20015;-96
2023/02/10 04:50:56;;;;;;;81.53;35.45;;;;;;;;;;6320380;22;20441;-94
2023/02/10 04:53:23;;;;;;;90.53;35.42;;;;;;;;;;6318091;22;20007;-93
2023/02/10 04:55:52;;;;;;;85.18;35.38;;;;;;;;;;6317889;22;20074;-94
2023/02/10 04:58:18;;;;;;;79.93;33.22;;;;;;;;;;6319994;22;20018;-94
2023/02/10 05:00:48;;;;;;;71.57;29.35;;;;;;;;;;6316763;22;20007;-94
2023/02/10 05:03:19;;;;;;;81.13;32.35;;;;;;;;;;6317279;22;20011;-95
2023/02/10 05:05:53;;;;;;;82.85;32.28;;;;;;;;;;6317691;22;20034;-95
2023/02/10 05:08:23;;;;;;;69.65;29.92;;;;;;;;;;6319875;22;20003;-96
2023/02/10 05:10:51;;;;;;;75.85;29.80;;;;;;;;;;6291466;22;20007;-96
2023/02/10 05:13:21;;;;;;;82.22;30.35;;;;;;;;;;6318974;22;19999;-96
2023/02/10 05:15:47;;;;;;;85.47;30.77;;;;;;;;;;6288080;22;20011;-93
2023/02/10 05:18:14;;;;;;;70.82;28.98;;;;;;;;;;6316945;22;20011;-95
2023/02/10 05:20:41;;;;;;;77.70;30.95;;;;;;;;;;6316920;22;20015;-95
2023/02/10 05:23:10;;;;;;;77.38;30.98;;;;;;;;;;6317383;22;20039;-95
2023/02/10 05:25:37;;;;;;;84.40;30.77;;;;;;;;;;6318230;22;20072;-95
2023/02/10 05:28:24;;;;;;;84.15;30.48;;;;;;;;;;6314634;22;20055;-95
2023/02/10 05:30:51;;;;;;;75.28;29.17;;;;;;;;;;6317303;22;19999;-95
2023/02/10 05:33:19;;;;;;;76.80;31.00;;;;;;;;;;6329189;22;20003;-94
2023/02/10 05:35:47;;;;;;;75.93;29.88;;;;;;;;;;6328783;22;20031;-95
2023/02/10 05:38:15;;;;;;;72.07;30.35;;;;;;;;;;6316157;22;19999;-95
2023/02/10 05:40:42;;;;;;;75.13;30.05;;;;;;;;;;6317374;22;20007;-93
2023/02/10 05:43:09;;;;;;;77.18;30.85;;;;;;;;;;6317510;22;20058;-93
2023/02/10 05:45:36;;;;;;;75.75;30.08;;;;;;;;;;6313859;22;20003;-96
2023/02/10 05:48:02;;;;;;;82.68;30.65;;;;;;;;;;6317357;22;20003;-94
2023/02/10 05:50:39;;;;;;;92.75;31.65;;;;;;;;;;6316647;22;20000;-96
2023/02/10 05:53:06;;;;;;;91.63;34.20;;;;;;;;;;6315511;22;20026;-96
2023/02/10 05:55:34;;;;;;;77.80;30.27;;;;;;;;;;6291336;22;20014;-96
2023/02/10 05:58:07;;;;;;;80.47;29.85;;;;;;;;;;6317681;22;20015;-95
2023/02/10 06:00:35;;;;;;;85.30;30.90;;;;;;;;;;6315191;22;20004;-94
2023/02/10 06:03:03;;;;;;;93.97;36.10;;;;;;;;;;6316412;22;20019;-93
2023/02/10 06:05:34;;;;;;;109.20;40.33;;;;;;;;;;6319132;22;20010;-94
2023/02/10 06:08:04;;;;;;;108.82;43.50;;;;;;;;;;6311246;22;20028;-96
2023/02/10 06:10:38;;;;;;;110.72;42.63;;;;;;;;;;6288596;22;20004;-96
2023/02/10 06:13:10;;;;;;;122.03;46.90;;;;;;;;;;6323393;22;20010;-95
2023/02/10 06:15:36;;;;;;;106.40;42.08;;;;;;;;;;6331330;22;20133;-94
2023/02/10 06:18:05;;;;;;;109.53;42.47;;;;;;;;;;6328327;22;20007;-96
2023/02/10 06:20:31;;;;;;;107.65;41.45;;;;;;;;;;6316506;22;20459;-95
2023/02/10 06:23:01;;;;;;;105.20;40.17;;;;;;;;;;6313262;22;20015;-95
2023/02/10 06:25:30;;;;;;;104.00;40.65;;;;;;;;;;6314512;22;20105;-95
2023/02/10 06:27:57;;;;;;;81.70;34.47;;;;;;;;;;6318636;22;20001;-94
2023/02/10 06:30:23;;;;;;;86.60;34.60;;;;;;;;;;6319288;22;20010;-93
2023/02/10 06:32:49;;;;;;;72.97;32.85;;;;;;;;;;6320348;22;20014;-93
2023/02/10 06:35:15;;;;;;;84.93;34.05;;;;;;;;;;6319850;22;19999;-95
2023/02/10 06:38:04;;;;;;;77.20;32.72;;;;;;;;;;6317991;22;20060;-93
2023/02/10 06:40:54;;;;;;;72.28;30.65;;;;;;;;;;6323584;22;20364;-94
2023/02/10 06:43:25;;;;;;;82.57;32.83;;;;;;;;;;6319026;22;20046;-94
2023/02/10 06:45:52;;;;;;;71.53;29.88;;;;;;;;;;6316992;22;20006;-96
2023/02/10 06:48:21;;;;;;;72.90;31.45;;;;;;;;;;6321275;22;20249;-96
2023/02/10 06:51:22;;;;;;;;;;;;;;;;;;;;;
2023/02/10 06:54:35;;;;;;;70.95;32.22;;;;;;;;;;6327084;22;20004;-95
2023/02/10 06:57:07;;;;;;;77.25;33.67;;;;;;;;;;6326089;22;19991;-95
2023/02/10 06:59:37;;;;;;;66.63;30.88;;;;;;;;;;6321920;22;20026;-94
2023/02/10 07:02:24;;;;;;;65.05;31.42;;;;;;;;;;6324652;22;19999;-96
2023/02/10 07:05:37;;;;;;;;;;;;;;;;;;;;;
2023/02/10 07:08:22;;;;;;;65.45;32.63;;;;;;;;;;6328400;22;20011;-95
2023/02/10 07:11:05;;;;;;;60.95;32.03;;;;;;;;;;6326033;22;19999;-95
2023/02/10 07:13:58;;;;;;;55.08;30.42;;;;;;;;;;6311743;22;19995;-93
2023/02/10 07:24:00;;;;;;;;;;;;;;;;;;;;;
2023/02/10 07:26:21;;;;;;;61.20;35.17;;;;;;;;;;6288802;22;20041;-93
2023/02/10 07:29:01;;;;;;;;;;;;;;;;;;;;;
2023/02/10 07:32:04;;;;;;;58.42;36.67;;;;;;;;;;6341845;22;20002;-96
2023/02/10 07:34:54;;;;;;;;;;;;;;;;;;;;;
2023/02/10 07:37:32;;;;;;;47.25;30.70;;;;;;;;;;6360052;22;20019;-96
2023/02/10 07:40:34;;;;;;;49.63;32.80;;;;;;;;;;6334102;22;20007;-94
2023/02/10 07:46:45;;;;;;;;;;;;;;;;;;;;;
2023/02/10 07:49:24;;;;;;;48.38;34.92;;;;;;;;;;6286889;22;20397;-96
2023/02/10 07:51:53;;;;;;;57.95;38.25;;;;;;;;;;6293978;22;20072;-96
2023/02/10 07:54:37;;;;;;;57.15;40.00;;;;;;;;;;6300588;22;20033;-93
2023/02/10 08:03:27;;;;;;;41.53;32.97;;;;;;;;;;6194858;23;20032;-96
2023/02/10 08:08:44;;;;;;;39.55;29.73;;;;;;;;;;6166448;23;20032;-94
2023/02/10 08:11:20;;;;;;;36.42;26.20;;;;;;;;;;6253285;22;20007;-96
2023/02/10 08:13:52;;;;;;;33.28;26.92;;;;;;;;;;6292784;22;19999;-96
2023/02/10 08:16:20;;;;;;;33.17;24.83;;;;;;;;;;6320659;22;20013;-96
2023/02/10 08:18:46;;;;;;;36.35;28.58;;;;;;;;;;6293908;22;20011;-96
2023/02/10 08:21:16;;;;;;;34.75;27.63;;;;;;;;;;6320651;22;20018;-96
2023/02/10 08:23:45;;;;;;;35.40;26.70;;;;;;;;;;6296950;22;20097;-96
2023/02/10 08:26:12;;;;;;;37.85;27.27;;;;;;;;;;6296834;22;20003;-96
2023/02/10 08:28:42;;;;;;;35.90;28.30;;;;;;;;;;6295563;22;20003;-95
2023/02/10 08:31:11;;;;;;;33.28;25.40;;;;;;;;;;6292322;22;20004;-96
2023/02/10 08:33:43;;;;;;;31.52;24.30;;;;;;;;;;6285823;22;20010;-96
2023/02/10 08:36:12;;;;;;;34.25;27.55;;;;;;;;;;6293127;22;20003;-95
2023/02/10 08:38:50;;;;;;;32.55;24.80;;;;;;;;;;6320786;22;20066;-96
2023/02/10 08:41:35;;;;;;;32.42;24.33;;;;;;;;;;6313018;22;20506;-96
2023/02/10 08:47:10;;;;;;;35.20;26.58;;;;;;;;;;6329616;22;20004;-95
2023/02/10 08:52:29;;;;;;;33.42;24.90;;;;;;;;;;6329152;22;20049;-92
2023/02/10 08:55:07;;;;;;;31.60;24.95;;;;;;;;;;6297222;22;20098;-96
2023/02/10 08:57:39;;;;;;;31.27;23.45;;;;;;;;;;6296072;22;20064;-95
2023/02/10 09:03:28;;;;;;;;;;;;;;;;;;;;;
2023/02/10 09:06:42;;;;;;;;;;;;;;;;;;;;;
2023/02/10 09:09:19;;;;;;;31.67;24.38;;;;;;;;;;6203152;23;20083;-95
2023/02/10 09:12:29;;;;;;;33.90;26.60;;;;;;;;;;6244066;22;20011;-95
2023/02/10 09:15:17;;;;;;;30.70;24.83;;;;;;;;;;6299066;22;20003;-96
2023/02/10 09:18:09;;;;;;;35.03;28.25;;;;;;;;;;6296264;22;20007;-95
2023/02/10 09:39:25;;;;;;;;;;;;;;;;;;;;;
2023/02/10 10:10:01;;;;;;;;;;;;;;;;;;;;;
2023/02/10 10:16:21;;;;;;;34.10;25.38;;;;;;;;;;6328930;22;20018;-91
2023/02/10 10:35:54;;;;;;;34.80;26.05;;;;;;;;;;6331702;22;20030;-93
2023/02/10 10:38:29;;;;;;;31.83;24.92;;;;;;;;;;6305609;22;20017;-95
2023/02/10 10:41:07;;;;;;;29.45;23.77;;;;;;;;;;6306484;22;20039;-93
2023/02/10 10:57:56;;;;;;;35.13;25.00;;;;;;;;;;6338031;22;20029;-94
2023/02/10 11:00:41;;;;;;;37.35;26.63;;;;;;;;;;6326683;22;19987;-94
2023/02/10 11:06:52;;;;;;;35.75;25.60;;;;;;;;;;6267828;22;20084;-91
2023/02/10 11:12:18;;;;;;;;;;;;;;;;;;;;;
2023/02/10 11:15:23;;;;;;;;;;;;;;;;;;;;;
2023/02/10 11:17:51;;;;;;;37.53;26.90;;;;;;;;;;6318030;22;19995;-92
2023/02/10 11:45:54;;;;;;;37.53;25.60;;;;;;;;;;6359546;22;20002;-94
2023/02/10 12:02:35;;;;;;;36.78;25.95;;;;;;;;;;6320259;22;20226;-92
2023/02/10 12:06:03;;;;;;;;;;;;;;;;;;;;;
2023/02/10 12:08:34;;;;;;;36.97;25.73;;;;;;;;;;6346910;22;20030;-93
2023/02/10 12:11:38;;;;;;;;;;;;;;;;;;;;;
2023/02/10 12:14:30;;;;;;;38.28;25.70;;;;;;;;;;6357312;22;19991;-94
2023/02/10 12:17:15;;;;;;;37.28;23.88;;;;;;;;;;6328136;22;20022;-92
2023/02/10 12:20:00;;;;;;;42.00;25.98;;;;;;;;;;6324595;22;20053;-96
2023/02/10 12:22:55;;;;;;;40.50;24.48;;;;;;;;;;6330720;22;20026;-92
2023/02/10 12:25:31;;;;;;;41.05;24.73;;;;;;;;;;6328266;22;20007;-94
2023/02/10 12:28:20;;;;;;;40.78;24.70;;;;;;;;;;6325078;22;20014;-94
2023/02/10 12:30:58;;;;;;;39.85;25.48;;;;;;;;;;6317180;22;19987;-91
2023/02/10 12:33:56;;;;;;;41.10;25.88;;;;;;;;;;6296325;22;19996;-95
2023/02/10 12:40:21;;;;;;;39.55;25.38;;;;;;;;;;6355246;22;20019;-93
2023/02/10 12:45:31;;;;;;;36.58;24.25;;;;;;;;;;6359154;22;20063;-92
2023/02/10 12:54:22;;;;;;;41.47;25.30;;;;;;;;;;6357128;22;20082;-92
2023/02/10 12:57:20;;;;;;;38.80;25.13;;;;;;;;;;6319476;22;20002;-95
2023/02/10 13:00:15;;;;;;;38.90;25.08;;;;;;;;;;6322160;22;20022;-95
2023/02/10 13:03:06;;;;;;;36.92;23.58;;;;;;;;;;6294224;22;20011;-93
2023/02/10 13:11:39;;;;;;;44.17;28.55;;;;;;;;;;6318163;22;20022;-92
2023/02/10 13:14:11;;;;;;;;;;;;;;;;;;6147270;23;20005;-95
2023/02/10 13:16:49;;;;;;;41.88;24.10;;;;;;;;;;6166610;23;19932;-92
2023/02/10 13:19:30;;;;;;;44.40;29.73;;;;;;;;;;6231040;22;20010;-92
2023/02/10 13:22:12;;;;;;;41.63;27.67;;;;;;;;;;6290460;22;20007;-94
2023/02/10 13:24:47;;;;;;;37.08;24.23;;;;;;;;;;6319917;22;20064;-93
2023/02/10 13:28:05;;;;;;;39.42;24.45;;;;;;;;;;6280081;22;20014;-94
2023/02/10 13:34:27;;;;;;;39.20;24.13;;;;;;;;;;6200797;23;20021;-94
2023/02/10 13:37:07;;;;;;;31.88;20.45;;;;;;;;;;6196127;23;20024;-92
2023/02/10 13:39:49;;;;;;;34.50;20.40;;;;;;;;;;6169538;23;20025;-94
2023/02/10 13:42:53;;;;;;;40.55;23.80;;;;;;;;;;6245522;22;20504;-93
2023/02/10 13:47:47;;;;;;;39.42;24.08;;;;;;;;;;6338263;22;20023;-92
2023/02/10 13:50:31;;;;;;;39.53;23.02;;;;;;;;;;6323368;22;20038;-92
2023/02/10 13:53:14;;;;;;;42.35;23.83;;;;;;;;;;6326220;22;20019;-94
2023/02/10 14:13:31;;;;;;;40.33;23.77;;;;;;;;;;6336838;22;20003;-95
2023/02/10 14:29:09;;;;;;;;;;;;;;;;;;;;;
2023/02/10 14:34:57;;;;;;;41.20;24.08;;;;;;;;;;6317437;22;20026;-95
2023/02/10 14:40:29;;;;;;;42.60;24.80;;;;;;;;;;6344599;22;20026;-96
2023/02/10 14:43:18;;;;;;;43.28;23.58;;;;;;;;;;6361546;22;20007;-95
2023/02/10 14:51:39;;;;;;;41.95;24.88;;;;;;;;;;6351550;22;20018;-94
2023/02/10 14:54:27;;;;;;;46.45;24.40;;;;;;;;;;6332683;22;20003;-94
2023/02/10 15:00:21;;;;;;;42.70;25.77;;;;;;;;;;6315141;22;20010;-93
2023/02/10 15:02:49;;;;;;;45.15;27.45;;;;;;;;;;6328179;22;20089;-94
2023/02/10 15:09:11;;;;;;;;;;;;;;;;;;;;;
2023/02/10 15:14:46;;;;;;;54.30;30.50;;;;;;;;;;6204595;23;20031;-94
2023/02/10 15:18:01;;;;;;;66.47;32.55;;;;;;;;;;6196988;23;20013;-93
2023/02/10 15:24:23;;;;;;;90.53;41.95;;;;;;;;;;6134173;23;20024;-93
2023/02/10 15:27:13;;;;;;;;;;;;;;;;;;;;;
2023/02/10 15:33:03;;;;;;;76.63;39.17;;;;;;;;;;6205185;23;20065;-93
2023/02/10 15:36:11;;;;;;;90.57;41.42;;;;;;;;;;6183555;23;20020;-92
2023/02/10 15:39:08;;;;;;;87.22;40.25;;;;;;;;;;6082857;23;20022;-94
2023/02/10 15:42:02;;;;;;;90.80;41.17;;;;;;;;;;6275829;22;20321;-94
2023/02/10 15:48:36;;;;;;;84.45;36.90;;;;;;;;;;6208553;23;20024;-93
2023/02/10 15:54:01;;;;;;;85.97;38.15;;;;;;;;;;6357899;22;20023;-95
2023/02/10 15:59:50;;;;;;;100.90;43.50;;;;;;;;;;6364014;22;20024;-94
2023/02/10 16:02:41;;;;;;;107.90;51.47;;;;;;;;;;6328923;22;20015;-94
2023/02/10 16:05:28;;;;;;;111.97;51.35;;;;;;;;;;6249861;22;20007;-94
2023/02/10 16:08:32;;;;;;;86.13;38.58;;;;;;;;;;6301964;22;20011;-94
2023/02/10 16:14:18;;;;;;;140.52;55.75;;;;;;;;;;6321496;22;20026;-94
2023/02/10 16:17:07;;;;;;;164.27;64.65;;;;;;;;;;6269127;23;20056;-94
2023/02/10 16:20:07;;;;;;;126.95;53.97;;;;;;;;;;6263242;23;19996;-94
2023/02/10 16:23:24;;;;;;;172.25;67.90;;;;;;;;;;6208326;23;20041;-94
2023/02/10 16:26:10;;;;;;;101.43;45.97;;;;;;;;;;6208547;22;20018;-92
2023/02/10 16:31:37;;;;;;;108.75;50.47;;;;;;;;;;6354331;22;20029;-93
2023/02/10 16:34:04;;;;;;;103.82;49.58;;;;;;;;;;6325197;22;20003;-92
2023/02/10 16:36:56;;;;;;;106.10;48.65;;;;;;;;;;6329413;22;20015;-92
2023/02/10 16:39:50;;;;;;;100.90;45.05;;;;;;;;;;6172939;23;20005;-94
2023/02/10 16:42:19;;;;;;;95.78;43.53;;;;;;;;;;6263300;22;20003;-92
2023/02/10 16:44:57;;;;;;;103.60;46.17;;;;;;;;;;6332983;22;19995;-91
2023/02/10 16:47:37;;;;;;;94.68;45.03;;;;;;;;;;6334186;22;20011;-93
2023/02/10 16:50:44;;;;;;;89.68;42.53;;;;;;;;;;6355207;22;20032;-96
2023/02/10 16:53:20;;;;;;;102.07;46.25;;;;;;;;;;6356064;22;20009;-94
2023/02/10 16:56:06;;;;;;;108.28;49.03;;;;;;;;;;6356009;22;20452;-92
2023/02/10 16:58:35;;;;;;;112.47;52.42;;;;;;;;;;6326785;22;20009;-95
2023/02/10 17:01:24;;;;;;;111.90;52.22;;;;;;;;;;6301892;22;20059;-94
2023/02/10 17:03:52;;;;;;;107.28;50.97;;;;;;;;;;6281084;22;20026;-95
2023/02/10 17:06:24;;;;;;;118.60;54.97;;;;;;;;;;6328924;22;20036;-95
2023/02/10 17:08:58;;;;;;;124.22;54.40;;;;;;;;;;6322515;22;20450;-95
2023/02/10 17:11:36;;;;;;;120.82;53.58;;;;;;;;;;6349782;22;20459;-95
2023/02/10 17:14:09;;;;;;;114.75;54.88;;;;;;;;;;6346691;22;20003;-95
2023/02/10 17:16:49;;;;;;;127.80;52.92;;;;;;;;;;6344684;22;20014;-95
2023/02/10 17:19:18;;;;;;;118.00;52.72;;;;;;;;;;6321269;22;20003;-94
2023/02/10 17:21:55;;;;;;;101.35;46.85;;;;;;;;;;6346822;22;20010;-96
2023/02/10 17:24:28;;;;;;;115.53;50.65;;;;;;;;;;6322529;22;20003;-95
2023/02/10 17:27:04;;;;;;;99.72;43.28;;;;;;;;;;6348980;22;20003;-96
2023/02/10 17:29:37;;;;;;;107.35;44.95;;;;;;;;;;6349031;22;20002;-95
2023/02/10 17:32:04;;;;;;;84.93;38.55;;;;;;;;;;6324261;22;20059;-95
2023/02/10 17:34:33;;;;;;;107.95;46.97;;;;;;;;;;6322537;22;20006;-95
2023/02/10 17:37:09;;;;;;;105.45;47.13;;;;;;;;;;6322478;22;20034;-96
2023/02/10 17:39:49;;;;;;;118.82;50.22;;;;;;;;;;6320723;22;20017;-96
2023/02/10 17:42:21;;;;;;;113.05;48.97;;;;;;;;;;6321411;22;20033;-96
2023/02/10 17:44:47;;;;;;;83.63;38.70;;;;;;;;;;6295147;22;20019;-95
2023/02/10 17:47:24;;;;;;;168.63;59.03;;;;;;;;;;6347367;22;20003;-93
2023/02/10 17:49:51;;;;;;;211.57;74.50;;;;;;;;;;6321387;22;20007;-95
2023/02/10 17:52:18;;;;;;;138.85;52.83;;;;;;;;;;6320571;22;20006;-96
2023/02/10 17:54:44;;;;;;;116.82;48.45;;;;;;;;;;6291940;22;20038;-96
2023/02/10 17:57:14;;;;;;;88.30;37.40;;;;;;;;;;6317239;22;20006;-94
2023/02/10 17:59:41;;;;;;;104.60;44.30;;;;;;;;;;6315339;22;20044;-96
2023/02/10 18:02:12;;;;;;;127.45;52.33;;;;;;;;;;6288274;22;20459;-95
2023/02/10 18:04:46;;;;;;;125.78;54.95;;;;;;;;;;6346511;22;20003;-93
2023/02/10 18:07:13;;;;;;;130.23;57.35;;;;;;;;;;6312348;22;20021;-93
2023/02/10 18:09:42;;;;;;;137.00;58.15;;;;;;;;;;6352622;22;20052;-95
2023/02/10 18:12:11;;;;;;;127.00;54.20;;;;;;;;;;6315571;22;20060;-95
2023/02/10 18:14:37;;;;;;;138.75;58.88;;;;;;;;;;6312422;22;20003;-94
2023/02/10 18:17:04;;;;;;;156.13;65.18;;;;;;;;;;6314665;22;20439;-95
2023/02/10 18:19:31;;;;;;;152.45;63.22;;;;;;;;;;6316160;22;20078;-95
2023/02/10 18:21:57;;;;;;;152.23;63.25;;;;;;;;;;6289455;22;20094;-93
2023/02/10 18:24:23;;;;;;;135.40;61.47;;;;;;;;;;6315581;22;19999;-95
2023/02/10 18:26:50;;;;;;;132.73;57.60;;;;;;;;;;6318915;22;20003;-93
2023/02/10 18:29:16;;;;;;;133.82;57.75;;;;;;;;;;6322477;22;20032;-95
2023/02/10 18:31:43;;;;;;;120.20;53.05;;;;;;;;;;6342532;22;20059;-95
2023/02/10 18:34:11;;;;;;;117.47;52.67;;;;;;;;;;6323461;22;20086;-95
2023/02/10 18:36:37;;;;;;;86.43;40.67;;;;;;;;;;6300173;22;20003;-94
2023/02/10 18:39:09;;;;;;;71.32;33.28;;;;;;;;;;6354381;22;20003;-96
2023/02/10 18:41:35;;;;;;;100.13;41.95;;;;;;;;;;6300415;22;20595;-95
2023/02/10 18:44:02;;;;;;;97.40;43.28;;;;;;;;;;6313721;22;20079;-94
2023/02/10 18:46:28;;;;;;;106.88;45.28;;;;;;;;;;6323456;22;20006;-95
2023/02/10 18:48:55;;;;;;;107.18;45.63;;;;;;;;;;6323763;22;20067;-93
2023/02/10 18:51:41;;;;;;;102.28;42.67;;;;;;;;;;6318077;22;20081;-95
2023/02/10 18:54:12;;;;;;;96.47;41.45;;;;;;;;;;6352672;22;20003;-95
2023/02/10 18:56:41;;;;;;;91.78;38.17;;;;;;;;;;6327004;22;20067;-96
2023/02/10 18:59:11;;;;;;;86.25;38.88;;;;;;;;;;6325882;22;20011;-94
2023/02/10 19:01:38;;;;;;;92.35;39.70;;;;;;;;;;6354569;22;20312;-95
2023/02/10 19:04:09;;;;;;;80.88;36.17;;;;;;;;;;6326929;22;20003;-95
2023/02/10 19:06:40;;;;;;;80.43;33.33;;;;;;;;;;6353520;22;19999;-95
2023/02/10 19:09:07;;;;;;;72.15;33.15;;;;;;;;;;6301875;22;20344;-94
2023/02/10 19:11:40;;;;;;;73.45;32.50;;;;;;;;;;6326262;22;19998;-96
2023/02/10 19:14:32;;;;;;;94.35;41.50;;;;;;;;;;6315832;22;20003;-96
2023/02/10 19:17:01;;;;;;;98.63;42.45;;;;;;;;;;6341050;22;20007;-93
2023/02/10 19:19:36;;;;;;;104.80;46.40;;;;;;;;;;6365296;22;20123;-93
2023/02/10 19:22:06;;;;;;;;;;;;;;;;;;6336059;22;20011;-95
2023/02/10 19:24:32;;;;;;;134.50;54.72;;;;;;;;;;6326284;22;19909;-95
2023/02/10 19:27:21;;;;;;;154.60;61.13;;;;;;;;;;6355913;22;20003;-96
2023/02/10 19:29:53;;;;;;;124.78;52.33;;;;;;;;;;6329074;22;20378;-95
2023/02/10 19:32:26;;;;;;;85.50;35.70;;;;;;;;;;6327854;22;20022;-95